This is the latest recevied weather packets stored in our database for station/object G8PZT. If no packets are shown the sender has not sent any weather packets the latest 10 day(s).
| Time | Temp. | Humidity | Pressure | Rain* | Wind** | Luminosity | Snow |
|---|---|---|---|---|---|---|---|
| 1787927320 | 21.67° C | 39% | - | 0 mm | - | - | - |
| 1787926802 | 21.67° C | 38% | - | 0 mm | - | - | - |
| 1787926720 | 21.67° C | 37% | - | 0 mm | - | - | - |
| 1787926120 | 22.22° C | 33% | - | 0 mm | - | - | - |
| 1787925602 | 22.78° C | 27% | - | 0 mm | - | - | - |
| 1787925520 | 23.33° C | 26% | - | 0 mm | - | - | - |
| 1787924919 | 23.89° C | 23% | - | 0 mm | - | - | - |
| 1787924402 | 25° C | 23% | - | 0 mm | - | - | - |
| 1787924319 | 25° C | 23% | - | 0 mm | - | - | - |
| 1787923719 | 23.89° C | 25% | - | 0 mm | - | - | - |
| 1787923202 | 24.44° C | 24% | - | 0 mm | - | - | - |
| 1787923119 | 24.44° C | 26% | - | 0 mm | - | - | - |
| 1787922002 | 22.78° C | 31% | - | 0 mm | - | - | - |
| 1787921920 | 22.78° C | 31% | - | 0 mm | - | - | - |
| 1787921319 | 22.78° C | 30% | - | 0 mm | - | - | - |
| 1787920719 | 23.33° C | 30% | - | 0 mm | - | - | - |
| 1787920120 | 23.89° C | 30% | - | 0 mm | - | - | - |
| 1787919520 | 21.67° C | 36% | - | 0 mm | - | - | - |
| 1787918920 | 22.78° C | 32% | - | 0 mm | - | - | - |
| 1787918402 | 22.78° C | 34% | - | 0 mm | - | - | - |
| 1787918320 | 22.78° C | 34% | - | 0 mm | - | - | - |
| 1787917720 | 21.67° C | 37% | - | 0 mm | - | - | - |
| 1787917119 | 21.67° C | 35% | - | 0 mm | - | - | - |
| 1787916519 | 22.22° C | 38% | - | 0 mm | - | - | - |
| 1787916002 | 21.11° C | 39% | - | 0 mm | - | - | - |
* Rain latest hour (hover to see other rain measurements)
** Current wind speed in m/s (hover to see current wind gust speed)